Time;durP1;ratioP1;P1;durP2;ratioP2;P2;SDS_P1;SDS_P2;PMS_P1;PMS_P2;Temp;Humidity;BMP_temperature;BMP_pressure;BME280_temperature;BME280_humidity;BME280_pressure;Samples;Min_cycle;Max_cycle;Signal;HPM_P1;HPM_P2
2024/04/04 00:02:27;;;;;;;1.70;1.60;;;;;;;17.04;55.24;98350.16;6812564;29;20679;-82
2024/04/04 00:05:50;;;;;;;2.20;1.53;;;;;;;17.45;53.76;98361.19;6809916;29;20226;-84
2024/04/04 00:09:13;;;;;;;4.73;1.93;;;;;;;17.19;54.88;98361.19;6809168;29;20253;-84
2024/04/04 00:12:34;;;;;;;5.00;1.90;;;;;;;16.58;55.71;98356.19;6809332;29;20705;-84
2024/04/04 00:15:55;;;;;;;1.70;1.60;;;;;;;16.81;55.83;98364.06;6809605;29;20713;-85
2024/04/04 00:19:16;;;;;;;4.30;2.03;;;;;;;16.93;54.73;98353.84;6808725;29;20313;-84
2024/04/04 00:22:37;;;;;;;2.90;1.80;;;;;;;16.98;55.01;98365.63;6809525;29;20211;-84
2024/04/04 00:26:00;;;;;;;4.20;1.80;;;;;;;17.13;54.46;98370.41;6809720;29;20297;-85
2024/04/04 00:29:22;;;;;;;5.03;1.60;;;;;;;17.17;54.17;98360.63;6808931;29;20840;-84
2024/04/04 00:32:42;;;;;;;3.40;1.63;;;;;;;17.40;53.55;98369.31;6808896;29;20329;-84
2024/04/04 00:36:04;;;;;;;2.07;1.60;;;;;;;17.38;53.49;98376.94;6809029;29;20226;-84
2024/04/04 00:39:25;;;;;;;3.93;1.93;;;;;;;17.26;53.81;98369.97;6808408;29;20234;-85
2024/04/04 00:42:51;;;;;;;3.43;1.80;;;;;;;17.28;53.74;98376.00;6809087;29;20217;-85
2024/04/04 00:46:11;;;;;;;4.33;2.00;;;;;;;17.29;53.34;98364.03;6808604;29;20289;-85
2024/04/04 00:49:33;;;;;;;2.13;1.60;;;;;;;17.24;53.74;98367.53;6808556;29;20235;-85
2024/04/04 00:52:54;;;;;;;4.13;2.07;;;;;;;17.59;53.12;98378.78;6808729;29;20374;-85
2024/04/04 00:56:16;;;;;;;3.50;1.60;;;;;;;17.22;53.85;98375.13;6808101;29;20214;-85
2024/04/04 00:59:38;;;;;;;4.87;2.10;;;;;;;17.35;53.42;98384.78;6808154;29;20713;-85
2024/04/04 01:03:00;;;;;;;2.10;1.90;;;;;;;17.40;52.95;98390.31;6808492;29;20241;-84
2024/04/04 01:06:29;;;;;;;2.77;1.70;;;;;;;17.49;53.13;98402.38;6807986;29;20373;-84
2024/04/04 01:09:50;;;;;;;1.97;1.57;;;;;;;17.14;53.66;98399.28;6808436;29;20232;-84
2024/04/04 01:13:12;;;;;;;4.60;1.90;;;;;;;17.29;53.41;98399.44;6808015;29;20317;-84
2024/04/04 01:16:34;;;;;;;1.97;1.77;;;;;;;17.25;53.27;98390.13;6807702;29;20211;-84
2024/04/04 01:19:55;;;;;;;3.60;1.90;;;;;;;17.37;52.63;98391.63;6811665;29;20592;-85
2024/04/04 01:23:17;;;;;;;4.50;2.27;;;;;;;17.47;52.53;98396.38;6814167;29;20699;-84
2024/04/04 01:26:38;;;;;;;3.30;1.90;;;;;;;17.51;52.27;98389.34;6813419;29;20296;-82
2024/04/04 01:30:00;;;;;;;4.00;1.90;;;;;;;17.61;51.59;98381.22;6812012;29;20622;-84
2024/04/04 01:33:22;;;;;;;1.60;1.40;;;;;;;17.66;51.65;98397.63;6811515;29;20680;-84
2024/04/04 01:36:43;;;;;;;4.63;1.70;;;;;;;17.43;52.61;98395.25;6810921;29;20249;-84
2024/04/04 01:40:08;;;;;;;2.13;1.50;;;;;;;17.31;52.69;98394.56;6828674;29;20261;-82
2024/04/04 01:43:31;;;;;;;3.43;1.97;;;;;;;17.19;52.68;98385.72;6816358;29;20224;-84
2024/04/04 01:46:52;;;;;;;3.00;1.53;;;;;;;17.33;53.02;98397.88;6807404;29;20255;-84
2024/04/04 01:50:14;;;;;;;2.50;1.63;;;;;;;16.76;53.84;98386.59;6807617;29;20375;-84
2024/04/04 01:53:36;;;;;;;5.43;1.73;;;;;;;17.10;54.05;98403.63;6803123;29;20317;-82
2024/04/04 01:56:57;;;;;;;1.60;1.50;;;;;;;17.24;53.23;98396.66;6807847;29;20217;-83
2024/04/04 02:00:20;;;;;;;1.70;1.60;;;;;;;17.34;52.63;98397.59;6808147;29;20268;-83
2024/04/04 02:03:41;;;;;;;3.67;1.60;;;;;;;17.16;53.24;98395.22;6808452;29;20312;-82
2024/04/04 02:07:03;;;;;;;1.60;1.50;;;;;;;17.20;53.12;98387.34;6807972;29;20350;-84
2024/04/04 02:10:24;;;;;;;1.93;1.40;;;;;;;17.42;52.42;98399.06;6808723;29;20869;-83
2024/04/04 02:13:46;;;;;;;33.17;24.40;;;;;;;17.17;53.28;98382.44;6807517;29;20236;-81
2024/04/04 02:17:11;;;;;;;3.20;2.90;;;;;;;17.53;52.18;98385.28;6807704;29;20705;-81
2024/04/04 02:20:33;;;;;;;1.97;1.50;;;;;;;17.63;51.61;98377.16;6808819;29;20724;-82
2024/04/04 02:23:55;;;;;;;4.53;1.87;;;;;;;17.74;51.35;98381.63;6808079;29;20578;-83
2024/04/04 02:27:16;;;;;;;2.47;1.50;;;;;;;17.62;51.89;98363.78;6807669;29;20293;-82
2024/04/04 02:30:38;;;;;;;2.50;1.50;;;;;;;17.73;51.58;98381.88;6807939;29;20230;-81
2024/04/04 02:33:59;;;;;;;1.77;1.63;;;;;;;17.72;51.88;98391.13;6809324;29;20236;-83
2024/04/04 02:37:21;;;;;;;1.47;1.37;;;;;;;17.54;52.12;98394.25;6811851;29;20212;-82
2024/04/04 02:40:41;;;;;;;2.83;1.40;;;;;;;17.58;52.22;98382.56;6812595;29;20321;-82
2024/04/04 02:44:03;;;;;;;4.90;1.80;;;;;;;17.53;52.41;98393.47;6813572;29;20264;-83
2024/04/04 02:47:23;;;;;;;3.07;1.53;;;;;;;17.39;52.87;98392.22;6812875;29;20300;-83
2024/04/04 02:50:54;;;;;;;2.97;1.80;;;;;;;17.22;53.46;98374.31;6813422;29;20641;-83
2024/04/04 02:54:14;;;;;;;1.90;1.70;;;;;;;16.84;54.38;98378.00;6813130;29;20303;-82
2024/04/04 02:57:38;;;;;;;2.57;1.80;;;;;;;17.12;53.70;98372.31;6813056;29;20210;-83
2024/04/04 03:01:03;;;;;;;4.53;1.80;;;;;;;17.19;53.31;98363.91;6813473;29;20597;-82
2024/04/04 03:04:25;;;;;;;2.00;1.40;;;;;;;17.27;53.43;98377.09;6813258;29;20263;-83
2024/04/04 03:07:48;;;;;;;3.80;1.50;;;;;;;16.85;54.52;98373.34;6812155;29;20366;-83
2024/04/04 03:11:10;;;;;;;1.83;1.40;;;;;;;16.77;55.00;98377.38;6812133;29;20253;-83
2024/04/04 03:14:30;;;;;;;3.03;1.50;;;;;;;16.79;54.60;98371.66;6812724;29;20394;-82
2024/04/04 03:17:52;;;;;;;3.37;1.40;;;;;;;17.14;53.43;98372.03;6811964;29;20206;-83
2024/04/04 03:21:13;;;;;;;5.00;2.77;;;;;;;16.94;54.11;98366.38;6812971;29;20609;-83
2024/04/04 03:24:36;;;;;;;1.77;1.67;;;;;;;17.21;53.45;98369.94;6812693;29;20211;-83
2024/04/04 03:27:58;;;;;;;1.40;1.27;;;;;;;17.02;53.78;98358.59;6811469;29;20372;-83
2024/04/04 03:31:18;;;;;;;3.60;1.80;;;;;;;16.88;53.78;98332.00;6812473;29;20360;-81
2024/04/04 03:34:40;;;;;;;2.70;1.90;;;;;;;17.21;53.34;98368.03;6811727;29;20634;-82
2024/04/04 03:38:03;;;;;;;1.47;1.30;;;;;;;17.27;53.29;98358.03;6811848;29;20278;-83
2024/04/04 03:41:26;;;;;;;3.00;1.60;;;;;;;16.75;54.65;98359.66;6814260;29;20675;-83
2024/04/04 03:44:51;;;;;;;1.57;1.47;;;;;;;17.20;53.27;98360.09;6812606;29;20211;-83
2024/04/04 03:48:11;;;;;;;1.67;1.50;;;;;;;17.22;52.87;98333.44;6810591;29;20319;-83
2024/04/04 03:51:33;;;;;;;2.50;1.53;;;;;;;17.03;52.85;98330.25;6813266;29;20213;-83
2024/04/04 03:54:53;;;;;;;2.33;1.57;;;;;;;16.89;53.74;98359.00;6797656;29;20320;-83
2024/04/04 03:58:18;;;;;;;1.60;1.50;;;;;;;16.99;53.77;98366.44;6787841;29;20241;-83
2024/04/04 04:01:40;;;;;;;2.93;1.80;;;;;;;17.19;52.81;98374.81;6784373;29;20221;-83
2024/04/04 04:05:00;;;;;;;2.30;1.40;;;;;;;17.02;53.36;98372.19;6809677;29;20298;-83
2024/04/04 04:08:22;;;;;;;1.60;1.50;;;;;;;17.09;53.00;98372.81;6810567;29;20721;-83
2024/04/04 04:11:42;;;;;;;2.43;1.40;;;;;;;16.81;53.74;98381.22;6809914;29;20349;-83
2024/04/04 04:15:06;;;;;;;1.50;1.40;;;;;;;17.19;52.81;98388.44;6809958;29;20234;-83
2024/04/04 04:18:28;;;;;;;3.27;1.67;;;;;;;17.27;52.27;98385.28;6808182;29;20296;-84
2024/04/04 04:21:48;;;;;;;2.80;1.80;;;;;;;16.85;53.36;98373.34;6809434;29;20206;-83
2024/04/04 04:25:10;;;;;;;2.30;1.60;;;;;;;16.86;53.47;98385.91;6809105;29;20269;-83
2024/04/04 04:28:30;;;;;;;2.10;1.90;;;;;;;17.42;52.16;98390.88;6808839;29;20314;-83
2024/04/04 04:31:56;;;;;;;4.23;1.80;;;;;;;17.52;51.95;98389.06;6809544;29;20626;-83
2024/04/04 04:35:17;;;;;;;2.37;1.70;;;;;;;17.61;51.38;98392.13;6809863;29;20424;-83
2024/04/04 04:38:38;;;;;;;3.57;1.53;;;;;;;17.51;51.78;98389.34;6808706;29;20707;-83
2024/04/04 04:42:00;;;;;;;2.17;1.70;;;;;;;17.56;51.36;98390.19;6809423;29;20271;-83
2024/04/04 04:45:21;;;;;;;1.73;1.63;;;;;;;17.03;52.98;98383.91;6809149;29;20240;-83
2024/04/04 04:48:44;;;;;;;1.63;1.53;;;;;;;16.95;52.81;98376.19;6808886;29;20646;-83
2024/04/04 04:52:06;;;;;;;2.33;1.57;;;;;;;16.81;53.61;98380.41;6808991;29;20297;-83
2024/04/04 04:55:27;;;;;;;3.10;1.70;;;;;;;16.81;53.40;98378.50;6808285;29;20321;-82
2024/04/04 04:58:48;;;;;;;1.70;1.60;;;;;;;16.55;54.02;98382.00;6807828;29;20309;-83
2024/04/04 05:02:09;;;;;;;1.80;1.70;;;;;;;16.69;53.83;98366.91;6808965;29;20671;-81
2024/04/04 05:05:31;;;;;;;1.67;1.57;;;;;;;16.72;53.59;98365.59;6808906;29;20218;-83
2024/04/04 05:08:53;;;;;;;2.00;1.50;;;;;;;16.48;54.31;98365.03;6808217;29;20233;-85
2024/04/04 05:12:14;;;;;;;1.83;1.60;;;;;;;16.56;54.20;98361.88;6805960;29;20212;-83
2024/04/04 05:15:44;;;;;;;1.50;1.40;;;;;;;16.79;53.73;98366.22;6809559;29;20317;-81
2024/04/04 05:19:06;;;;;;;2.97;1.60;;;;;;;16.86;53.15;98362.22;6807746;29;20239;-83
2024/04/04 05:22:29;;;;;;;2.23;1.43;;;;;;;16.67;53.87;98370.97;6808370;29;20233;-83
2024/04/04 05:25:50;;;;;;;1.53;1.40;;;;;;;16.33;54.52;98345.75;6807827;29;20207;-83
2024/04/04 05:29:12;;;;;;;2.60;1.87;;;;;;;16.46;54.51;98364.44;6808024;29;20240;-84
2024/04/04 05:32:34;;;;;;;2.10;1.70;;;;;;;16.20;55.14;98361.63;6809066;29;20224;-83
2024/04/04 05:35:55;;;;;;;5.37;1.70;;;;;;;16.52;54.55;98359.91;6808442;29;20299;-83
2024/04/04 05:39:17;;;;;;;1.73;1.60;;;;;;;16.49;54.58;98349.53;6808176;29;20229;-83
2024/04/04 05:42:39;;;;;;;1.80;1.50;;;;;;;16.50;54.52;98357.44;6809006;29;20220;-83
2024/04/04 05:45:59;;;;;;;2.50;1.30;;;;;;;16.71;54.03;98350.34;6803285;29;20203;-84
2024/04/04 05:49:21;;;;;;;3.07;1.50;;;;;;;16.67;54.23;98344.59;6781531;29;20289;-83
2024/04/04 05:52:41;;;;;;;1.60;1.50;;;;;;;16.64;53.98;98366.06;6782540;29;20220;-83
2024/04/04 05:56:05;;;;;;;2.40;1.60;;;;;;;16.64;54.56;98355.97;6782203;29;20218;-83
2024/04/04 05:59:26;;;;;;;4.17;1.57;;;;;;;16.72;53.74;98351.97;6781064;29;20233;-83
2024/04/04 06:02:48;;;;;;;1.60;1.50;;;;;;;16.97;53.04;98358.53;6806809;29;20342;-82
2024/04/04 06:06:10;;;;;;;1.60;1.37;;;;;;;17.15;52.67;98352.72;6807944;29;20410;-83
2024/04/04 06:09:32;;;;;;;3.30;1.63;;;;;;;17.30;51.94;98346.59;6809788;29;20842;-83
2024/04/04 06:12:53;;;;;;;2.93;1.63;;;;;;;17.02;53.09;98358.59;6814024;29;20749;-83
2024/04/04 06:16:15;;;;;;;3.70;1.70;;;;;;;17.35;52.14;98344.72;6813653;29;20219;-83
2024/04/04 06:19:36;;;;;;;4.23;1.97;;;;;;;17.38;52.21;98348.88;6812815;29;20691;-83
2024/04/04 06:22:57;;;;;;;3.97;1.67;;;;;;;17.57;51.58;98340.03;6811367;29;20416;-83
2024/04/04 06:26:18;;;;;;;3.43;1.90;;;;;;;18.07;49.93;98340.41;6813478;29;20221;-84
2024/04/04 06:29:41;;;;;;;3.10;1.70;;;;;;;18.58;49.01;98330.56;6813739;29;20313;-81
2024/04/04 06:33:03;;;;;;;4.10;1.83;;;;;;;18.49;48.84;98319.34;6815207;29;20243;-82
2024/04/04 06:36:24;;;;;;;5.60;2.07;;;;;;;18.07;49.70;98343.13;6816081;29;20293;-80
2024/04/04 06:39:45;;;;;;;2.17;1.70;;;;;;;17.73;50.71;98330.06;6814602;29;20231;-83
2024/04/04 06:43:06;;;;;;;5.77;2.00;;;;;;;18.57;49.26;98335.19;6814876;29;20297;-81
2024/04/04 06:46:29;;;;;;;4.77;2.10;;;;;;;18.88;47.95;98328.75;6814314;29;20270;-81
2024/04/04 06:49:49;;;;;;;3.10;1.87;;;;;;;18.86;48.18;98332.84;6813461;29;20270;-81
2024/04/04 06:53:54;;;;;;;8.10;2.23;;;;;;;19.02;46.87;98346.28;6813872;29;20236;-83
2024/04/04 06:57:15;;;;;;;4.03;2.03;;;;;;;19.01;46.52;98338.34;6818687;29;20214;-85
2024/04/04 07:00:38;;;;;;;5.80;2.00;;;;;;;19.02;46.99;98318.94;6816000;29;20246;-86
2024/04/04 07:08:25;;;;;;;4.93;2.20;;;;;;;19.47;45.86;98267.09;6815910;29;20231;-84
2024/04/04 07:16:32;;;;;;;3.57;2.20;;;;;;;20.82;43.80;98343.34;6817656;29;20577;-84
2024/04/04 07:24:39;;;;;;;13.13;2.67;;;;;;;21.06;42.93;98322.44;6814055;29;20605;-82
2024/04/04 07:28:01;;;;;;;2.23;1.70;;;;;;;20.91;43.18;98264.13;6814108;29;20220;-83
2024/04/04 07:39:51;;;;;;;5.07;2.30;;;;;;;20.76;42.58;98286.13;6787785;29;20241;-82
2024/04/04 07:43:40;;;;;;;5.00;1.90;;;;;;;20.32;43.80;98356.41;6819234;29;20214;-84
2024/04/04 07:47:01;;;;;;;4.33;2.13;;;;;;;19.78;44.53;98383.56;6816695;29;20211;-86
2024/04/04 07:50:23;;;;;;;6.00;2.30;;;;;;;19.62;44.92;98375.63;6788845;29;20314;-83
2024/04/04 07:53:44;;;;;;;3.63;2.03;;;;;;;19.54;45.08;98376.16;6787947;29;20321;-81
2024/04/04 07:57:05;;;;;;;4.63;1.90;;;;;;;19.15;45.75;98388.63;6793731;29;20438;-80
2024/04/04 08:00:28;;;;;;;5.23;2.60;;;;;;;19.03;46.52;98390.81;6786572;29;20250;-81
2024/04/04 08:03:50;;;;;;;6.53;2.40;;;;;;;18.85;48.71;98380.38;6786537;29;20307;-81
2024/04/04 08:07:11;;;;;;;5.30;1.90;;;;;;;19.21;48.09;98380.22;6787867;29;20301;-81
2024/04/04 08:10:33;;;;;;;3.80;2.13;;;;;;;18.34;48.47;98394.88;6788776;29;20254;-81
2024/04/04 08:13:53;;;;;;;6.47;2.50;;;;;;;18.94;48.08;98389.69;6788406;29;20227;-81
2024/04/04 08:17:16;;;;;;;3.93;1.90;;;;;;;18.02;49.21;98385.91;6787557;29;20239;-81
2024/04/04 08:20:38;;;;;;;6.23;2.30;;;;;;;18.92;47.21;98400.06;6786473;29;20314;-80
2024/04/04 08:23:59;;;;;;;5.60;2.30;;;;;;;18.78;47.07;98404.38;6787640;29;20272;-81
2024/04/04 08:27:20;;;;;;;4.73;1.87;;;;;;;18.80;46.49;98391.28;6812208;29;20234;-81
2024/04/04 08:30:41;;;;;;;5.00;1.93;;;;;;;18.88;46.85;98391.56;6812738;29;20644;-80
2024/04/04 08:34:04;;;;;;;3.47;1.80;;;;;;;19.32;46.02;98394.72;6811407;29;20234;-79
2024/04/04 08:37:26;;;;;;;5.63;2.03;;;;;;;19.62;45.03;98409.28;6812309;29;20206;-82
2024/04/04 08:40:48;;;;;;;6.67;2.73;;;;;;;19.03;46.58;98412.66;6801791;29;20729;-85
2024/04/04 08:44:12;;;;;;;5.90;1.77;;;;;;;19.01;46.70;98409.38;6811456;29;20207;-85
2024/04/04 08:47:34;;;;;;;4.97;1.87;;;;;;;19.15;46.60;98402.31;6810843;29;20301;-83
2024/04/04 08:50:57;;;;;;;6.67;1.80;;;;;;;18.67;47.51;98413.59;6815345;29;20722;-82
2024/04/04 08:54:20;;;;;;;6.50;2.03;;;;;;;18.81;47.45;98412.84;6823690;29;20265;-82
2024/04/04 08:57:44;;;;;;;7.43;2.23;;;;;;;19.06;47.14;98406.66;6817300;29;20691;-81
2024/04/04 09:01:06;;;;;;;4.43;1.87;;;;;;;18.48;47.96;98409.69;6810983;29;20297;-81
2024/04/04 09:04:28;;;;;;;5.77;2.33;;;;;;;18.53;48.34;98426.09;6811799;29;20258;-81
2024/04/04 09:07:51;;;;;;;5.63;2.17;;;;;;;18.42;49.06;98421.69;6811180;29;20851;-85
2024/04/04 09:11:12;;;;;;;5.27;1.90;;;;;;;18.87;47.99;98414.53;6806044;29;20222;-82
2024/04/04 09:14:33;;;;;;;6.33;2.63;;;;;;;18.91;47.74;98407.44;6811926;29;20230;-82
2024/04/04 09:18:04;;;;;;;5.83;1.90;;;;;;;18.93;47.01;98401.72;6811517;29;20289;-84
2024/04/04 09:21:25;;;;;;;3.63;1.90;;;;;;;18.91;47.75;98410.19;6812655;29;20270;-83
2024/04/04 09:24:49;;;;;;;3.67;1.60;;;;;;;18.91;47.40;98401.97;6813469;29;20199;-82
2024/04/04 09:28:10;;;;;;;5.17;2.20;;;;;;;19.12;47.24;98413.78;6819504;29;20222;-83
2024/04/04 09:31:34;;;;;;;3.67;1.77;;;;;;;19.27;46.37;98398.28;6813717;29;20223;-82
2024/04/04 09:35:00;;;;;;;3.50;2.00;;;;;;;19.82;45.19;98403.00;6811762;29;20269;-82
2024/04/04 09:38:20;;;;;;;3.90;1.90;;;;;;;19.62;45.27;98392.84;6810951;29;20230;-82
2024/04/04 09:41:43;;;;;;;5.40;2.03;;;;;;;20.26;44.39;98412.28;6812082;29;20214;-82
2024/04/04 09:45:06;;;;;;;4.33;2.00;;;;;;;20.33;43.83;98412.84;6810961;29;20211;-83
2024/04/04 09:48:27;;;;;;;4.53;2.10;;;;;;;20.31;43.58;98432.28;6811754;29;20227;-82
2024/04/04 09:51:50;;;;;;;3.93;1.77;;;;;;;20.12;45.13;98427.63;6811861;29;20211;-82
2024/04/04 09:55:13;;;;;;;4.43;2.13;;;;;;;19.75;44.89;98421.59;6811815;29;20234;-81
2024/04/04 09:58:35;;;;;;;4.37;1.97;;;;;;;19.87;45.03;98417.47;6811901;29;20321;-83
2024/04/04 10:02:02;;;;;;;6.83;1.90;;;;;;;19.71;45.45;98421.31;6810368;29;20206;-82
2024/04/04 10:05:25;;;;;;;7.07;2.37;;;;;;;20.19;44.61;98422.69;6812862;29;20352;-84
2024/04/04 10:08:47;;;;;;;3.13;2.17;;;;;;;20.73;42.94;98432.72;6809086;29;20226;-84
2024/04/04 10:12:10;;;;;;;5.57;2.10;;;;;;;20.86;43.33;98421.16;6811828;29;20755;-82
2024/04/04 10:15:42;;;;;;;5.50;2.47;;;;;;;20.16;45.84;98431.47;6815094;29;20313;-84
2024/04/04 10:19:10;;;;;;;4.37;1.90;;;;;;;20.11;46.08;98423.25;6814330;29;20251;-86
2024/04/04 10:22:31;;;;;;;4.70;2.10;;;;;;;20.18;46.17;98438.31;6810794;29;20302;-81
2024/04/04 10:25:53;;;;;;;6.53;2.10;;;;;;;19.52;47.95;98435.78;6809001;29;20623;-81
2024/04/04 10:29:13;;;;;;;5.37;2.43;;;;;;;19.77;48.19;98444.03;6808828;29;20238;-84
2024/04/04 10:32:36;;;;;;;3.27;1.53;;;;;;;19.37;48.88;98435.75;6810519;29;20210;-81
2024/04/04 10:35:59;;;;;;;5.30;2.30;;;;;;;18.86;48.31;98440.19;6809554;29;20301;-80
2024/04/04 10:39:21;;;;;;;4.37;2.10;;;;;;;19.09;48.19;98430.72;6812450;29;20309;-82
2024/04/04 10:42:43;;;;;;;5.63;2.00;;;;;;;19.16;49.02;98431.31;6804743;29;20239;-82
2024/04/04 10:46:03;;;;;;;5.57;2.77;;;;;;;18.84;49.31;98431.47;6800511;29;20278;-81
2024/04/04 10:49:29;;;;;;;5.30;2.20;;;;;;;18.82;49.65;98424.63;6802061;29;20243;-80
2024/04/04 10:52:51;;;;;;;3.00;2.20;;;;;;;19.15;49.13;98427.75;6809707;29;20346;-81
2024/04/04 10:56:11;;;;;;;7.23;4.00;;;;;;;19.41;48.61;98436.88;6806854;29;20325;-80
2024/04/04 10:59:33;;;;;;;11.87;6.10;;;;;;;19.59;48.41;98437.19;6808642;29;20257;-82
2024/04/04 11:02:54;;;;;;;5.83;2.20;;;;;;;19.22;48.47;98435.72;6813567;29;20351;-80
2024/04/04 11:06:16;;;;;;;4.83;2.00;;;;;;;19.30;48.70;98446.97;6786695;29;20314;-82
2024/04/04 11:09:38;;;;;;;5.87;2.20;;;;;;;19.59;48.77;98439.09;6785877;29;20258;-82
2024/04/04 11:12:58;;;;;;;6.10;2.47;;;;;;;19.44;49.22;98425.38;6786327;29;20379;-82
2024/04/04 11:16:20;;;;;;;7.17;2.17;;;;;;;19.75;48.10;98435.28;6786491;29;20243;-82
2024/04/04 11:19:42;;;;;;;4.23;2.17;;;;;;;19.46;48.66;98417.75;6786830;29;20242;-82
2024/04/04 11:23:05;;;;;;;4.73;1.90;;;;;;;19.75;48.00;98411.47;6810984;29;20735;-81
2024/04/04 11:26:26;;;;;;;6.37;2.07;;;;;;;19.29;47.84;98401.56;6793895;29;20539;-80
2024/04/04 11:29:48;;;;;;;6.17;3.73;;;;;;;19.55;47.56;98413.34;6816597;29;20290;-81
2024/04/04 11:33:09;;;;;;;6.77;2.83;;;;;;;19.36;48.43;98401.31;6815484;29;20373;-82
2024/04/04 11:36:31;;;;;;;5.30;3.40;;;;;;;19.85;46.28;98391.47;6814115;29;20441;-81
2024/04/04 11:39:54;;;;;;;4.87;2.37;;;;;;;19.36;47.41;98379.44;6814367;29;20230;-82
2024/04/04 11:43:16;;;;;;;4.50;2.47;;;;;;;19.84;47.02;98434.47;6814727;29;20298;-82
2024/04/04 11:46:36;;;;;;;4.53;2.10;;;;;;;19.36;48.35;98426.75;6814338;29;20207;-81
2024/04/04 11:49:58;;;;;;;8.03;2.47;;;;;;;19.96;48.10;98435.00;6814428;29;20229;-82
2024/04/04 11:53:19;;;;;;;5.03;2.00;;;;;;;19.44;47.77;98396.13;6815120;29;20234;-82
2024/04/04 11:56:41;;;;;;;4.37;2.33;;;;;;;19.28;48.91;98402.66;6814357;29;20708;-81
2024/04/04 12:00:04;;;;;;;4.03;2.37;;;;;;;19.48;48.96;98442.88;6816033;29;20230;-80
2024/04/04 12:03:25;;;;;;;3.53;2.23;;;;;;;19.05;49.59;98446.03;6814299;29;20294;-78
2024/04/04 12:06:46;;;;;;;3.30;2.20;;;;;;;19.60;49.03;98437.97;6807056;29;20687;-80
2024/04/04 12:10:09;;;;;;;4.00;2.00;;;;;;;19.85;49.40;98448.94;6807697;29;20711;-79
2024/04/04 12:13:30;;;;;;;5.53;1.80;;;;;;;19.27;49.24;98452.16;6801870;29;20214;-79
2024/04/04 12:16:54;;;;;;;6.63;2.07;;;;;;;20.07;47.57;98455.00;6808403;29;20227;-79
2024/04/04 12:20:19;;;;;;;3.70;2.40;;;;;;;19.96;47.30;98459.63;6810381;29;20592;-80
2024/04/04 12:23:40;;;;;;;3.13;1.73;;;;;;;19.27;48.48;98469.34;6810258;29;20643;-81
2024/04/04 12:27:02;;;;;;;3.27;1.80;;;;;;;19.64;47.85;98452.78;6809553;29;20293;-81
2024/04/04 12:30:24;;;;;;;3.70;1.83;;;;;;;19.45;48.07;98455.19;6809913;29;20238;-81
2024/04/04 12:33:45;;;;;;;4.07;1.80;;;;;;;20.07;46.95;98452.28;6810515;29;20215;-80
2024/04/04 12:37:07;;;;;;;3.37;1.83;;;;;;;19.64;47.96;98460.97;6809638;29;20371;-80
2024/04/04 12:40:28;;;;;;;4.83;2.27;;;;;;;19.22;48.98;98463.88;6810514;29;20251;-80
2024/04/04 12:43:49;;;;;;;3.30;1.83;;;;;;;19.40;47.95;98454.38;6810374;29;20216;-81
2024/04/04 12:47:12;;;;;;;4.50;1.87;;;;;;;19.12;47.65;98433.75;6809547;29;20285;-81
2024/04/04 12:50:33;;;;;;;2.57;1.80;;;;;;;18.57;48.66;98469.00;6809873;29;20541;-80
2024/04/04 12:53:55;;;;;;;2.40;1.47;;;;;;;18.47;47.64;98468.97;6810434;29;20206;-80
2024/04/04 12:57:17;;;;;;;2.20;1.80;;;;;;;18.55;47.31;98441.16;6809689;29;20210;-80
2024/04/04 13:00:38;;;;;;;2.77;1.50;;;;;;;19.02;45.45;98460.22;6809428;29;20227;-80
2024/04/04 13:04:00;;;;;;;1.37;1.27;;;;;;;18.81;45.76;98444.84;6809927;29;20226;-80
2024/04/04 13:07:22;;;;;;;2.33;1.37;;;;;;;19.17;45.25;98447.41;6809569;29;20214;-80
2024/04/04 13:10:44;;;;;;;1.30;1.20;;;;;;;19.01;45.12;98450.38;6810747;29;20234;-82
2024/04/04 13:14:05;;;;;;;4.13;1.43;;;;;;;19.11;44.88;98447.69;6810622;29;20221;-81
2024/04/04 13:17:25;;;;;;;1.43;1.33;;;;;;;19.09;44.59;98415.16;6810451;29;20211;-82
2024/04/04 13:20:48;;;;;;;1.53;1.33;;;;;;;18.99;45.14;98438.91;6809952;29;20289;-81
2024/04/04 13:24:10;;;;;;;2.77;1.20;;;;;;;18.63;45.86;98431.63;6811507;29;20305;-82
2024/04/04 13:27:30;;;;;;;2.00;1.37;;;;;;;18.72;46.12;98406.28;6810403;29;20251;-82
2024/04/04 13:30:52;;;;;;;3.07;1.30;;;;;;;19.29;45.28;98412.50;6810051;29;20241;-83
2024/04/04 13:34:13;;;;;;;1.70;1.60;;;;;;;18.20;47.50;98418.22;6804448;29;20277;-83
2024/04/04 13:37:36;;;;;;;2.10;1.40;;;;;;;18.19;47.11;98408.41;6808345;29;20545;-83
2024/04/04 13:40:58;;;;;;;2.00;1.30;;;;;;;18.58;46.18;98383.25;6791417;29;20323;-84
2024/04/04 13:44:20;;;;;;;2.37;1.50;;;;;;;18.82;46.31;98383.66;6781682;29;20226;-85
2024/04/04 13:47:41;;;;;;;1.90;1.20;;;;;;;18.55;46.57;98381.06;6790056;29;20275;-83
2024/04/04 13:51:02;;;;;;;3.60;1.53;;;;;;;18.71;46.31;98381.97;6795373;29;20299;-85
2024/04/04 13:54:25;;;;;;;6.10;1.57;;;;;;;18.62;46.46;98380.81;6789220;29;20215;-83
2024/04/04 13:57:46;;;;;;;3.13;1.50;;;;;;;18.54;46.80;98376.72;6782366;29;20211;-84
2024/04/04 14:01:08;;;;;;;2.07;1.60;;;;;;;18.68;46.59;98399.69;6783967;29;20562;-83
2024/04/04 14:04:28;;;;;;;2.30;1.60;;;;;;;19.06;46.63;98395.75;6784664;29;20228;-83
2024/04/04 14:07:50;;;;;;;3.17;1.50;;;;;;;19.00;46.25;98399.53;6782522;29;20423;-83
2024/04/04 14:11:13;;;;;;;4.27;1.93;;;;;;;19.37;45.86;98387.38;6783406;29;20218;-82
2024/04/04 14:14:35;;;;;;;1.70;1.13;;;;;;;19.15;46.00;98378.53;6801262;29;20233;-83
2024/04/04 14:17:56;;;;;;;1.53;1.30;;;;;;;18.98;46.81;98391.63;6807627;29;20212;-83
2024/04/04 14:21:17;;;;;;;1.40;1.30;;;;;;;19.42;46.00;98384.66;6808778;29;20250;-82
2024/04/04 14:24:38;;;;;;;1.80;1.60;;;;;;;19.74;44.98;98390.69;6808139;29;20215;-83
2024/04/04 14:28:01;;;;;;;2.57;1.27;;;;;;;18.66;47.47;98406.50;6806237;29;20251;-83
2024/04/04 14:31:23;;;;;;;1.43;1.20;;;;;;;19.07;47.54;98386.44;6802614;29;20265;-83
2024/04/04 14:34:44;;;;;;;1.33;1.23;;;;;;;18.43;49.50;98385.94;6813552;29;20265;-83
2024/04/04 14:38:06;;;;;;;1.93;1.60;;;;;;;19.04;48.35;98390.53;6812568;29;20671;-83
2024/04/04 14:41:26;;;;;;;1.73;1.63;;;;;;;18.95;47.96;98334.78;6811208;29;20222;-81
2024/04/04 14:44:50;;;;;;;2.43;1.50;;;;;;;19.41;47.92;98376.72;6813956;29;20212;-81
2024/04/04 14:48:12;;;;;;;2.57;1.50;;;;;;;19.53;47.35;98386.31;6812508;29;20244;-81
2024/04/04 14:51:35;;;;;;;2.27;1.30;;;;;;;20.35;45.80;98369.56;6812015;29;20243;-79
2024/04/04 14:54:55;;;;;;;3.50;2.07;;;;;;;20.10;45.90;98391.50;6791033;29;20232;-81
2024/04/04 14:58:17;;;;;;;1.63;1.40;;;;;;;19.15;48.33;98399.56;6804512;29;20242;-81
2024/04/04 15:01:39;;;;;;;2.10;1.43;;;;;;;19.18;47.41;98388.94;6809631;29;20294;-81
2024/04/04 15:05:00;;;;;;;2.43;1.20;;;;;;;20.15;46.16;98391.47;6813010;29;20231;-81
2024/04/04 15:08:22;;;;;;;4.37;1.53;;;;;;;20.04;45.73;98396.13;6804817;29;20289;-81
2024/04/04 15:11:43;;;;;;;2.63;1.70;;;;;;;20.28;44.90;98394.47;6786412;29;20262;-81
2024/04/04 15:15:05;;;;;;;2.73;1.60;;;;;;;19.91;46.00;98393.13;6786319;29;20299;-81
2024/04/04 15:18:27;;;;;;;2.03;1.40;;;;;;;20.33;45.21;98410.09;6785840;29;20326;-81
2024/04/04 15:21:49;;;;;;;2.27;1.50;;;;;;;19.66;46.05;98393.13;6784986;29;20222;-81
2024/04/04 15:25:09;;;;;;;2.47;2.10;;;;;;;20.08;46.04;98382.75;6785280;29;20270;-81
2024/04/04 15:28:31;;;;;;;3.43;1.43;;;;;;;20.32;45.21;98392.00;6784790;29;20614;-80
2024/04/04 15:31:52;;;;;;;1.67;1.57;;;;;;;19.87;45.60;98357.28;6784724;29;20260;-80
2024/04/04 15:35:15;;;;;;;2.70;1.50;;;;;;;20.31;45.63;98369.28;6784845;29;20297;-82
2024/04/04 15:38:36;;;;;;;1.83;1.30;;;;;;;20.36;44.91;98371.19;6802818;29;20313;-80
2024/04/04 15:41:57;;;;;;;2.37;1.60;;;;;;;20.36;45.29;98395.84;6810111;29;20262;-80
2024/04/04 15:45:20;;;;;;;3.13;1.57;;;;;;;20.00;44.95;98407.91;6810546;29;20271;-80
2024/04/04 15:48:41;;;;;;;1.87;1.50;;;;;;;19.84;44.67;98398.06;6810480;29;20774;-80
2024/04/04 15:52:05;;;;;;;2.40;1.63;;;;;;;19.78;45.45;98410.94;6810436;29;20274;-80
2024/04/04 15:55:26;;;;;;;2.37;1.40;;;;;;;20.02;44.81;98400.22;6810433;29;20393;-80
2024/04/04 15:58:47;;;;;;;1.60;1.50;;;;;;;20.12;44.81;98422.16;6809699;29;20576;-80
2024/04/04 16:02:08;;;;;;;3.10;1.50;;;;;;;20.00;45.17;98429.81;6784050;29;20373;-80
2024/04/04 16:05:29;;;;;;;2.47;1.80;;;;;;;19.69;45.13;98447.31;6803967;29;20249;-79
2024/04/04 16:08:52;;;;;;;1.67;1.30;;;;;;;19.62;44.99;98439.34;6808397;29;20236;-80
2024/04/04 16:12:13;;;;;;;2.03;1.50;;;;;;;19.83;44.03;98399.16;6808637;29;20235;-79
2024/04/04 16:15:35;;;;;;;2.37;1.10;;;;;;;20.05;44.90;98432.53;6794796;29;20721;-82